Time;durP1;ratioP1;P1;durP2;ratioP2;P2;SDS_P1;SDS_P2;PMS_P1;PMS_P2;Temp;Humidity;BMP_temperature;BMP_pressure;BME280_temperature;BME280_humidity;BME280_pressure;Samples;Min_cycle;Max_cycle;Signal;HPM_P1;HPM_P2
2022/03/04 00:02:15;;;;;;;16.30;6.97;;;2.30;99.90;;;;;;5039041;28;20584;-73
2022/03/04 00:04:40;;;;;;;15.20;8.13;;;2.30;99.90;;;;;;5070020;28;20112;-74
2022/03/04 00:07:06;;;;;;;14.18;7.28;;;2.30;99.90;;;;;;5053658;28;20167;-73
2022/03/04 00:09:33;;;;;;;15.30;7.40;;;2.30;99.90;;;;;;5038832;28;20123;-73
2022/03/04 00:11:59;;;;;;;14.27;7.30;;;2.20;99.90;;;;;;5068447;28;20378;-74
2022/03/04 00:14:24;;;;;;;16.65;7.80;;;2.20;99.90;;;;;;5052327;28;20175;-74
2022/03/04 00:16:51;;;;;;;14.63;7.90;;;2.30;99.90;;;;;;5037667;28;20124;-73
2022/03/04 00:19:17;;;;;;;14.75;7.28;;;2.30;99.90;;;;;;5055278;28;20118;-73
2022/03/04 00:21:47;;;;;;;15.27;8.02;;;2.20;99.90;;;;;;5054499;28;20041;-73
2022/03/04 00:24:13;;;;;;;16.02;9.13;;;2.30;99.90;;;;;;5054021;28;20064;-73
2022/03/04 00:26:39;;;;;;;15.48;7.85;;;2.10;99.90;;;;;;5054081;28;20134;-74
2022/03/04 00:29:06;;;;;;;16.48;8.40;;;2.10;99.90;;;;;;5054252;28;20075;-74
2022/03/04 00:31:32;;;;;;;13.65;7.53;;;2.10;99.90;;;;;;5037782;28;20047;-73
2022/03/04 00:33:58;;;;;;;13.10;7.05;;;2.20;99.90;;;;;;5053876;28;20052;-73
2022/03/04 00:36:25;;;;;;;15.23;8.27;;;2.20;99.90;;;;;;5054957;28;20048;-74
2022/03/04 00:38:52;;;;;;;13.85;7.40;;;2.20;99.90;;;;;;5054543;28;20029;-74
2022/03/04 00:41:19;;;;;;;14.10;7.47;;;2.10;99.90;;;;;;5054074;28;20037;-73
2022/03/04 00:43:46;;;;;;;15.13;8.27;;;2.10;99.90;;;;;;5070804;28;20037;-74
2022/03/04 00:46:13;;;;;;;15.13;8.23;;;2.00;99.90;;;;;;5038170;28;20033;-74
2022/03/04 00:48:42;;;;;;;17.92;7.63;;;1.80;99.90;;;;;;5037758;28;20029;-73
2022/03/04 00:51:09;;;;;;;14.27;7.53;;;1.80;99.90;;;;;;5053926;28;20064;-74
2022/03/04 00:53:35;;;;;;;14.50;7.50;;;1.90;99.90;;;;;;5051594;28;20090;-73
2022/03/04 00:56:00;;;;;;;17.48;8.20;;;1.90;99.90;;;;;;5054432;28;20037;-73
2022/03/04 00:58:26;;;;;;;14.88;7.82;;;2.00;99.90;;;;;;5054088;28;20033;-73
2022/03/04 01:00:52;;;;;;;16.20;8.73;;;1.80;99.90;;;;;;5051947;28;20041;-73
2022/03/04 01:03:18;;;;;;;18.23;8.15;;;1.80;99.90;;;;;;5037850;28;20450;-73
2022/03/04 01:05:44;;;;;;;17.42;9.30;;;1.80;99.90;;;;;;5036941;28;20056;-73
2022/03/04 01:08:09;;;;;;;17.23;8.35;;;1.80;99.90;;;;;;5052930;28;20047;-73
2022/03/04 01:10:35;;;;;;;16.60;9.00;;;1.80;99.90;;;;;;5053154;28;20127;-73
2022/03/04 01:13:01;;;;;;;17.20;8.98;;;1.80;99.90;;;;;;5071013;28;20036;-73
2022/03/04 01:15:27;;;;;;;18.55;9.13;;;1.90;99.90;;;;;;5035638;28;20072;-74
2022/03/04 01:17:53;;;;;;;19.20;10.00;;;2.00;99.90;;;;;;5054487;28;20041;-74
2022/03/04 01:20:18;;;;;;;16.85;8.98;;;1.70;99.90;;;;;;5053430;28;20037;-73
2022/03/04 01:22:45;;;;;;;18.42;9.63;;;1.70;99.90;;;;;;5054225;28;20041;-74
2022/03/04 01:25:11;;;;;;;17.05;8.85;;;1.70;99.90;;;;;;5070024;28;20123;-73
2022/03/04 01:27:37;;;;;;;20.42;9.48;;;1.80;99.90;;;;;;5054036;28;20040;-73
2022/03/04 01:30:07;;;;;;;18.10;9.43;;;1.70;99.90;;;;;;5069805;28;20053;-74
2022/03/04 01:32:33;;;;;;;17.70;9.02;;;1.60;99.90;;;;;;5055080;28;20486;-73
2022/03/04 01:34:59;;;;;;;15.50;8.27;;;1.60;99.90;;;;;;5052033;28;20048;-73
2022/03/04 01:37:25;;;;;;;18.40;9.05;;;1.80;99.90;;;;;;5036107;28;20040;-73
2022/03/04 01:39:50;;;;;;;18.10;9.82;;;1.70;99.90;;;;;;5052968;28;20037;-73
2022/03/04 01:42:16;;;;;;;17.48;9.60;;;1.60;99.90;;;;;;5037047;28;20460;-73
2022/03/04 01:44:42;;;;;;;15.63;8.75;;;1.60;99.90;;;;;;5031916;28;20477;-73
2022/03/04 01:47:08;;;;;;;19.27;9.82;;;1.50;99.90;;;;;;5053646;28;20477;-73
2022/03/04 01:49:33;;;;;;;19.38;9.52;;;1.50;99.90;;;;;;5069641;28;20405;-73
2022/03/04 01:51:59;;;;;;;21.65;9.77;;;1.40;99.90;;;;;;5036889;28;20123;-73
2022/03/04 01:54:25;;;;;;;16.55;9.68;;;1.20;99.90;;;;;;5052842;28;20044;-73
2022/03/04 01:56:51;;;;;;;19.50;9.82;;;1.20;99.90;;;;;;5053438;28;20037;-73
2022/03/04 01:59:17;;;;;;;22.13;10.63;;;1.20;99.90;;;;;;5031135;28;20030;-73
2022/03/04 02:01:43;;;;;;;18.15;9.90;;;1.20;99.90;;;;;;5050284;28;20525;-73
2022/03/04 02:04:09;;;;;;;17.02;9.52;;;1.20;99.90;;;;;;5036361;28;20041;-73
2022/03/04 02:06:35;;;;;;;18.60;9.70;;;1.10;99.90;;;;;;5046893;28;20053;-73
2022/03/04 02:09:01;;;;;;;18.40;10.02;;;1.10;99.90;;;;;;5041481;28;20162;-73
2022/03/04 02:11:27;;;;;;;17.13;10.05;;;1.10;99.90;;;;;;5036451;28;20045;-73
2022/03/04 02:13:53;;;;;;;18.95;9.10;;;1.00;99.90;;;;;;5052455;28;20048;-73
2022/03/04 02:16:24;;;;;;;16.90;9.35;;;1.00;99.90;;;;;;5036013;28;20055;-73
2022/03/04 02:18:50;;;;;;;18.48;10.00;;;1.00;99.90;;;;;;5050831;28;20497;-73
2022/03/04 02:21:17;;;;;;;19.90;10.70;;;0.80;99.90;;;;;;5035158;28;20043;-73
2022/03/04 02:23:43;;;;;;;18.85;10.18;;;0.80;99.90;;;;;;5051428;28;20083;-73
2022/03/04 02:26:08;;;;;;;19.95;10.40;;;0.90;99.90;;;;;;5052869;28;20045;-73
2022/03/04 02:28:34;;;;;;;19.65;11.07;;;0.80;99.90;;;;;;5048805;28;20033;-73
2022/03/04 02:30:59;;;;;;;19.48;9.52;;;0.80;99.90;;;;;;5052254;28;20041;-73
2022/03/04 02:33:26;;;;;;;22.30;11.23;;;0.90;99.90;;;;;;5051544;28;20047;-73
2022/03/04 02:35:52;;;;;;;20.30;10.48;;;0.90;99.90;;;;;;5052678;28;20478;-73
2022/03/04 02:38:18;;;;;;;21.95;11.02;;;0.90;99.90;;;;;;5044764;28;20116;-73
2022/03/04 02:40:43;;;;;;;19.35;10.57;;;0.70;99.90;;;;;;5063262;28;20489;-73
2022/03/04 02:43:09;;;;;;;23.90;10.82;;;0.80;99.90;;;;;;5036831;28;20543;-73
2022/03/04 02:45:34;;;;;;;23.67;11.45;;;0.80;99.90;;;;;;5032592;28;20037;-73
2022/03/04 02:48:00;;;;;;;19.88;10.65;;;0.80;99.90;;;;;;5045503;28;20068;-73
2022/03/04 02:50:26;;;;;;;19.65;10.70;;;0.80;99.90;;;;;;5052463;28;20524;-73
2022/03/04 02:52:52;;;;;;;20.13;10.35;;;0.80;99.90;;;;;;5052006;28;20095;-73
2022/03/04 02:55:17;;;;;;;19.85;10.48;;;1.00;99.90;;;;;;5052330;28;20046;-73
2022/03/04 02:57:46;;;;;;;24.63;11.60;;;1.10;99.90;;;;;;5051347;28;20435;-73
2022/03/04 03:00:14;;;;;;;23.30;11.88;;;1.00;99.90;;;;;;5052053;28;20041;-74
2022/03/04 03:02:40;;;;;;;23.20;11.80;;;0.90;99.90;;;;;;5051108;28;20112;-73
2022/03/04 03:05:06;;;;;;;22.83;10.82;;;0.90;99.90;;;;;;5035627;28;20041;-73
2022/03/04 03:07:32;;;;;;;20.33;9.98;;;1.00;99.90;;;;;;5049931;28;20571;-73
2022/03/04 03:09:58;;;;;;;22.73;10.55;;;1.10;99.90;;;;;;5052424;28;20151;-73
2022/03/04 03:12:23;;;;;;;19.98;10.90;;;1.10;99.90;;;;;;5050073;28;20049;-73
2022/03/04 03:14:49;;;;;;;22.25;11.82;;;1.10;99.90;;;;;;5052021;28;20041;-73
2022/03/04 03:17:15;;;;;;;19.65;10.77;;;1.10;99.90;;;;;;5051416;28;20044;-73
2022/03/04 03:19:41;;;;;;;20.80;11.50;;;1.00;99.90;;;;;;5052064;28;20029;-73
2022/03/04 03:22:06;;;;;;;21.48;10.88;;;1.10;99.90;;;;;;5051317;28;20309;-73
2022/03/04 03:24:32;;;;;;;21.83;11.00;;;1.10;99.90;;;;;;5035363;28;20059;-73
2022/03/04 03:26:58;;;;;;;23.63;12.02;;;1.00;99.90;;;;;;5050830;28;20044;-73
2022/03/04 03:29:23;;;;;;;20.73;10.63;;;1.00;99.90;;;;;;5051711;28;20040;-73
2022/03/04 03:31:49;;;;;;;22.90;12.23;;;1.20;99.90;;;;;;5050984;28;20039;-73
2022/03/04 03:34:14;;;;;;;24.45;13.50;;;1.00;99.90;;;;;;5051589;28;20382;-74
2022/03/04 03:36:41;;;;;;;20.50;11.10;;;0.80;99.90;;;;;;5048185;28;20079;-74
2022/03/04 03:39:08;;;;;;;21.05;11.70;;;0.90;99.90;;;;;;5035218;28;20064;-73
2022/03/04 03:41:34;;;;;;;20.58;10.98;;;1.20;99.90;;;;;;5050995;28;20088;-73
2022/03/04 03:44:00;;;;;;;25.98;13.88;;;1.30;99.90;;;;;;5051613;28;20504;-74
2022/03/04 03:46:26;;;;;;;24.30;12.82;;;1.30;99.90;;;;;;5051033;28;20045;-73
2022/03/04 03:48:52;;;;;;;27.15;13.55;;;1.30;99.90;;;;;;5052083;28;20047;-74
2022/03/04 03:51:17;;;;;;;24.77;12.68;;;1.10;99.90;;;;;;5051138;28;20107;-74
2022/03/04 03:53:43;;;;;;;26.98;14.25;;;1.20;99.90;;;;;;5049740;28;20036;-74
2022/03/04 03:56:08;;;;;;;25.00;13.65;;;1.10;99.90;;;;;;5044071;28;20037;-74
2022/03/04 03:58:34;;;;;;;22.35;11.70;;;0.90;99.90;;;;;;5063963;28;20040;-73
2022/03/04 04:01:00;;;;;;;22.10;12.35;;;1.00;99.90;;;;;;5045337;28;20128;-74
2022/03/04 04:03:25;;;;;;;22.90;12.50;;;1.20;99.90;;;;;;5050397;28;20120;-73
2022/03/04 04:05:51;;;;;;;22.63;11.77;;;1.10;99.90;;;;;;5050463;28;20040;-73
2022/03/04 04:08:17;;;;;;;22.45;12.20;;;1.00;99.90;;;;;;5050034;28;20048;-73
2022/03/04 04:10:42;;;;;;;20.40;10.38;;;1.20;99.90;;;;;;5051517;28;20052;-73
2022/03/04 04:13:08;;;;;;;21.80;10.77;;;1.20;99.90;;;;;;5050864;28;20048;-74
2022/03/04 04:15:34;;;;;;;23.17;12.40;;;1.20;99.90;;;;;;5050521;28;20037;-74
2022/03/04 04:17:59;;;;;;;22.55;11.77;;;0.90;99.90;;;;;;5050677;28;20523;-74
2022/03/04 04:20:25;;;;;;;21.55;12.18;;;1.00;99.90;;;;;;5051724;28;20136;-74
2022/03/04 04:22:50;;;;;;;21.38;11.73;;;1.10;99.90;;;;;;5050562;28;20041;-74
2022/03/04 04:25:16;;;;;;;20.55;11.13;;;1.20;99.90;;;;;;5052276;28;20037;-75
2022/03/04 04:27:42;;;;;;;27.23;12.98;;;1.00;99.90;;;;;;5034108;28;20037;-73
2022/03/04 04:30:08;;;;;;;22.25;12.48;;;0.90;99.90;;;;;;5051246;28;20114;-74
2022/03/04 04:32:34;;;;;;;21.27;12.30;;;0.80;99.90;;;;;;5050427;28;20123;-74
2022/03/04 04:34:59;;;;;;;24.17;12.45;;;0.90;99.90;;;;;;5050461;28;20133;-74
2022/03/04 04:37:25;;;;;;;25.23;12.75;;;0.80;99.90;;;;;;5049402;28;20044;-73
2022/03/04 04:39:50;;;;;;;24.13;12.98;;;0.80;99.90;;;;;;5048206;28;20061;-74
2022/03/04 04:42:16;;;;;;;23.17;12.57;;;0.60;99.90;;;;;;5048927;28;20037;-74
2022/03/04 04:44:41;;;;;;;26.08;12.95;;;0.60;99.90;;;;;;5053957;28;20044;-73
2022/03/04 04:47:07;;;;;;;23.30;11.82;;;0.60;99.90;;;;;;5054787;28;20044;-73
2022/03/04 04:49:37;;;;;;;26.27;13.18;;;0.60;99.90;;;;;;5053979;28;20041;-74
2022/03/04 04:52:07;;;;;;;28.45;14.10;;;0.60;99.90;;;;;;5054699;28;20048;-74
2022/03/04 04:54:34;;;;;;;23.13;12.80;;;0.70;99.90;;;;;;5051937;28;20041;-73
2022/03/04 04:57:00;;;;;;;26.40;12.90;;;0.90;99.90;;;;;;5052032;28;20075;-74
2022/03/04 04:59:25;;;;;;;26.85;14.60;;;0.80;99.90;;;;;;5053768;28;20041;-74
2022/03/04 05:01:51;;;;;;;25.95;13.68;;;0.80;99.90;;;;;;5054543;28;20047;-74
2022/03/04 05:04:17;;;;;;;27.38;15.02;;;0.60;99.90;;;;;;5053704;28;20185;-73
2022/03/04 05:06:43;;;;;;;24.67;13.20;;;0.80;99.90;;;;;;5053438;28;20071;-73
2022/03/04 05:09:09;;;;;;;27.70;14.52;;;1.00;99.90;;;;;;5053956;28;20440;-73
2022/03/04 05:11:35;;;;;;;27.25;14.57;;;1.00;99.90;;;;;;5037538;28;20509;-74
2022/03/04 05:14:00;;;;;;;28.02;14.57;;;1.00;99.90;;;;;;5054081;28;20045;-73
2022/03/04 05:16:26;;;;;;;29.13;15.85;;;0.80;99.90;;;;;;5054028;28;20045;-74
2022/03/04 05:18:52;;;;;;;26.77;15.02;;;0.70;99.90;;;;;;5054206;28;20033;-74
2022/03/04 05:21:18;;;;;;;26.90;12.70;;;0.80;99.90;;;;;;5053371;28;20037;-73
2022/03/04 05:24:06;;;;;;;25.13;14.73;;;0.70;99.90;;;;;;5054090;28;20048;-75
2022/03/04 05:26:40;;;;;;;28.35;13.75;;;0.80;99.90;;;;;;5050689;28;20048;-74
2022/03/04 05:29:11;;;;;;;22.80;12.30;;;0.80;99.90;;;;;;5037651;28;20041;-74
2022/03/04 05:31:38;;;;;;;25.67;13.43;;;0.80;99.90;;;;;;5051436;28;20048;-75
2022/03/04 05:34:06;;;;;;;25.55;13.20;;;0.80;99.90;;;;;;5051580;28;20052;-74
2022/03/04 05:36:32;;;;;;;24.73;13.35;;;1.00;99.90;;;;;;5053933;28;20075;-74
2022/03/04 05:38:58;;;;;;;26.75;14.43;;;1.10;99.90;;;;;;5036549;28;20086;-74
2022/03/04 05:41:24;;;;;;;29.75;15.63;;;1.00;99.90;;;;;;5036660;28;20037;-74
2022/03/04 05:43:49;;;;;;;26.83;16.10;;;0.90;99.90;;;;;;5053617;28;20037;-74
2022/03/04 05:46:15;;;;;;;29.08;14.77;;;0.80;99.90;;;;;;5036153;28;20402;-74
2022/03/04 05:48:41;;;;;;;28.23;15.55;;;0.70;99.90;;;;;;5053450;28;20446;-74
2022/03/04 05:51:07;;;;;;;25.60;14.20;;;0.50;99.90;;;;;;5049224;28;20137;-74
2022/03/04 05:53:33;;;;;;;28.63;15.52;;;0.70;99.90;;;;;;5050332;28;20037;-73
2022/03/04 05:56:00;;;;;;;33.15;16.55;;;0.70;99.90;;;;;;5048554;28;20417;-74
2022/03/04 05:58:26;;;;;;;28.35;15.68;;;0.60;99.90;;;;;;5053409;28;20481;-74
2022/03/04 06:00:51;;;;;;;28.75;15.35;;;0.40;99.90;;;;;;5052896;28;20033;-73
2022/03/04 06:03:17;;;;;;;30.65;16.92;;;0.50;99.90;;;;;;5053499;28;20041;-74
2022/03/04 06:05:43;;;;;;;28.55;14.82;;;0.40;99.90;;;;;;5050302;28;20037;-74
2022/03/04 06:08:08;;;;;;;29.73;14.55;;;0.60;99.90;;;;;;5053523;28;20037;-74
2022/03/04 06:10:34;;;;;;;29.75;16.38;;;0.70;99.90;;;;;;5051935;28;20131;-73
2022/03/04 06:12:59;;;;;;;25.58;13.63;;;0.60;99.90;;;;;;5035932;28;20048;-74
2022/03/04 06:15:25;;;;;;;31.80;16.35;;;0.80;99.90;;;;;;5052180;28;20036;-74
2022/03/04 06:17:51;;;;;;;19.92;9.82;;;0.80;99.90;;;;;;5053083;28;20044;-75
2022/03/04 06:20:18;;;;;;;25.73;13.45;;;0.80;99.90;;;;;;5068827;28;20043;-74
2022/03/04 06:22:44;;;;;;;27.83;15.00;;;0.60;99.90;;;;;;5052966;28;20041;-74
2022/03/04 06:25:11;;;;;;;27.73;15.48;;;0.60;99.90;;;;;;5050475;28;20041;-74
2022/03/04 06:27:38;;;;;;;30.15;14.50;;;0.40;99.90;;;;;;5050715;28;20044;-74
2022/03/04 06:30:05;;;;;;;23.58;13.23;;;0.50;99.90;;;;;;5036291;28;20051;-74
2022/03/04 06:32:30;;;;;;;28.38;16.00;;;0.80;99.90;;;;;;5035081;28;20041;-74
2022/03/04 06:34:57;;;;;;;28.73;15.23;;;0.60;99.90;;;;;;5052454;28;20048;-74
2022/03/04 06:37:23;;;;;;;28.67;14.50;;;0.50;99.90;;;;;;5052095;28;20127;-74
2022/03/04 06:39:49;;;;;;;31.52;15.38;;;0.40;99.90;;;;;;5052926;28;20080;-74
2022/03/04 06:42:14;;;;;;;28.27;14.40;;;0.30;99.90;;;;;;5049020;28;20128;-74
2022/03/04 06:44:40;;;;;;;25.80;14.50;;;0.40;99.90;;;;;;5052396;28;20132;-74
2022/03/04 06:47:07;;;;;;;27.63;14.18;;;0.70;99.90;;;;;;5023121;28;20044;-74
2022/03/04 06:49:33;;;;;;;25.25;13.65;;;1.00;99.90;;;;;;5040118;28;20044;-74
2022/03/04 06:51:58;;;;;;;24.65;12.80;;;1.00;99.90;;;;;;5041505;28;20044;-75
2022/03/04 06:54:24;;;;;;;27.13;13.85;;;1.00;99.90;;;;;;5049126;28;20489;-74
2022/03/04 06:56:49;;;;;;;27.95;14.10;;;1.00;99.90;;;;;;5034916;28;20477;-74
2022/03/04 06:59:15;;;;;;;29.70;16.23;;;1.00;99.90;;;;;;5004706;28;20035;-74
2022/03/04 07:01:41;;;;;;;25.75;14.02;;;1.00;99.90;;;;;;5021869;28;20041;-74
2022/03/04 07:04:06;;;;;;;26.38;14.95;;;1.00;99.90;;;;;;5012355;28;20041;-74
2022/03/04 07:06:32;;;;;;;20.30;10.02;;;1.10;99.90;;;;;;5024498;28;20064;-74
2022/03/04 07:08:57;;;;;;;23.30;14.07;;;1.20;99.90;;;;;;5033469;28;20071;-75
2022/03/04 07:11:23;;;;;;;25.00;14.65;;;1.30;99.90;;;;;;5047098;28;20036;-74
2022/03/04 07:13:48;;;;;;;24.77;13.35;;;1.00;99.90;;;;;;5045850;28;20115;-74
2022/03/04 07:16:14;;;;;;;24.70;12.75;;;0.80;99.90;;;;;;5051171;28;20040;-75
2022/03/04 07:18:39;;;;;;;26.55;13.52;;;0.70;99.90;;;;;;5051875;28;20033;-74
2022/03/04 07:21:05;;;;;;;26.17;13.60;;;1.00;99.90;;;;;;5048799;28;20036;-74
2022/03/04 07:23:31;;;;;;;25.13;14.38;;;1.00;99.90;;;;;;5051430;28;20041;-73
2022/03/04 07:25:56;;;;;;;25.88;13.27;;;0.90;99.90;;;;;;5049571;28;20051;-73
2022/03/04 07:28:22;;;;;;;27.65;15.32;;;0.90;99.90;;;;;;5068172;28;20102;-74
2022/03/04 07:30:47;;;;;;;24.90;13.82;;;0.90;99.90;;;;;;5050473;28;20489;-74
2022/03/04 07:33:13;;;;;;;18.45;9.82;;;1.10;99.90;;;;;;5045552;28;20151;-73
2022/03/04 07:35:42;;;;;;;23.70;11.98;;;1.20;99.90;;;;;;5033690;28;20041;-73
2022/03/04 07:38:08;;;;;;;24.73;14.30;;;1.20;99.90;;;;;;5048744;28;20046;-74
2022/03/04 07:40:33;;;;;;;26.65;14.38;;;1.00;99.90;;;;;;5010079;28;20037;-74
2022/03/04 07:42:59;;;;;;;26.02;15.10;;;1.10;99.90;;;;;;5033947;28;20770;-74
2022/03/04 07:45:25;;;;;;;27.67;14.82;;;0.80;99.90;;;;;;5036413;28;20413;-74
2022/03/04 07:47:50;;;;;;;23.17;13.43;;;0.80;99.90;;;;;;5050776;28;21535;-74
2022/03/04 07:50:17;;;;;;;26.42;15.55;;;0.80;99.90;;;;;;5037004;28;20037;-74
2022/03/04 07:52:43;;;;;;;26.17;14.57;;;0.70;99.90;;;;;;5050586;28;20045;-74
2022/03/04 07:55:13;;;;;;;23.02;13.40;;;0.60;99.90;;;;;;5037909;28;20059;-74
2022/03/04 07:57:38;;;;;;;26.58;13.98;;;0.70;99.90;;;;;;5036482;28;20033;-74
2022/03/04 08:00:06;;;;;;;25.55;14.38;;;0.80;99.90;;;;;;5032662;28;20095;-74
2022/03/04 08:02:32;;;;;;;23.65;13.85;;;0.80;99.90;;;;;;5035953;28;20037;-73
2022/03/04 08:04:57;;;;;;;25.75;15.00;;;1.00;99.90;;;;;;5035876;28;20052;-74
2022/03/04 08:07:23;;;;;;;24.75;13.35;;;1.10;99.90;;;;;;5038022;28;20037;-74
2022/03/04 08:09:48;;;;;;;21.38;11.32;;;1.10;99.90;;;;;;5039636;28;20052;-74
2022/03/04 08:12:14;;;;;;;25.35;11.70;;;1.30;99.90;;;;;;5040825;28;20158;-74
2022/03/04 08:14:40;;;;;;;21.15;11.48;;;1.50;99.90;;;;;;5021090;28;20037;-74
2022/03/04 08:17:06;;;;;;;23.55;12.55;;;1.50;99.90;;;;;;5005198;28;20209;-74
2022/03/04 08:19:33;;;;;;;23.95;13.88;;;1.40;99.90;;;;;;5056478;28;20465;-74
2022/03/04 08:21:58;;;;;;;21.65;13.35;;;1.40;99.90;;;;;;5038469;28;20091;-74
2022/03/04 08:24:24;;;;;;;20.08;11.25;;;1.30;99.90;;;;;;5037521;28;20050;-74
2022/03/04 08:26:50;;;;;;;22.52;12.68;;;1.50;99.90;;;;;;5066516;28;20512;-74
2022/03/04 08:29:16;;;;;;;23.55;13.02;;;1.50;99.90;;;;;;5053675;28;20919;-73
2022/03/04 08:31:41;;;;;;;24.40;15.10;;;1.50;99.90;;;;;;5037962;28;20044;-74
2022/03/04 08:34:08;;;;;;;21.90;13.50;;;1.30;99.90;;;;;;5054139;28;20053;-74
2022/03/04 08:36:35;;;;;;;25.20;15.15;;;1.10;99.90;;;;;;5054795;28;20044;-74
2022/03/04 08:39:03;;;;;;;25.15;12.55;;;1.10;99.90;;;;;;5053727;28;20041;-74
2022/03/04 08:41:30;;;;;;;24.63;13.88;;;1.00;99.90;;;;;;5039547;28;20057;-74
2022/03/04 08:43:56;;;;;;;20.40;11.40;;;1.30;99.90;;;;;;5042600;28;20045;-74
2022/03/04 08:46:21;;;;;;;20.70;12.07;;;1.40;99.90;;;;;;5036359;28;20147;-74
2022/03/04 08:48:47;;;;;;;22.73;12.38;;;1.80;99.90;;;;;;5054684;28;20090;-73
2022/03/04 08:51:13;;;;;;;24.05;12.27;;;1.70;99.90;;;;;;5049980;28;20485;-74
2022/03/04 08:53:39;;;;;;;22.08;11.95;;;2.00;99.90;;;;;;5049079;28;20040;-75
2022/03/04 08:56:05;;;;;;;21.48;13.20;;;1.80;99.90;;;;;;5068410;28;20532;-74
2022/03/04 08:58:31;;;;;;;22.65;13.10;;;1.90;99.90;;;;;;5038731;28;20089;-74
2022/03/04 09:00:56;;;;;;;25.48;14.43;;;1.80;99.90;;;;;;5036680;28;20045;-74
2022/03/04 09:03:22;;;;;;;22.80;12.77;;;1.80;99.90;;;;;;5028759;28;20056;-75
2022/03/04 09:05:48;;;;;;;20.05;11.65;;;1.80;99.90;;;;;;5022756;28;20075;-74
2022/03/04 09:08:14;;;;;;;17.98;10.88;;;2.00;99.90;;;;;;5027676;28;20135;-74
2022/03/04 09:10:40;;;;;;;22.65;12.60;;;2.20;99.90;;;;;;5040070;28;20070;-74
2022/03/04 09:13:06;;;;;;;21.80;12.60;;;2.20;99.90;;;;;;5038216;28;20266;-74
2022/03/04 09:15:32;;;;;;;20.10;12.00;;;2.20;99.90;;;;;;5040931;28;20048;-74
2022/03/04 09:17:58;;;;;;;28.63;14.55;;;1.90;99.90;;;;;;5036850;28;20521;-74
2022/03/04 09:20:24;;;;;;;24.35;14.35;;;1.70;99.90;;;;;;5040661;28;20052;-74
2022/03/04 09:22:50;;;;;;;25.27;15.68;;;1.70;99.90;;;;;;5049917;28;20064;-74
2022/03/04 09:25:16;;;;;;;26.40;14.63;;;1.60;99.90;;;;;;5051275;28;20036;-74
2022/03/04 09:27:42;;;;;;;23.23;14.00;;;1.60;99.90;;;;;;5053487;28;20128;-74
2022/03/04 09:30:09;;;;;;;23.05;14.10;;;1.70;99.90;;;;;;5033097;28;20048;-74
2022/03/04 09:32:35;;;;;;;21.45;12.07;;;2.10;99.90;;;;;;5054521;28;20119;-72
2022/03/04 09:35:01;;;;;;;22.95;12.80;;;2.30;99.90;;;;;;5040797;28;20175;-74
2022/03/04 09:37:26;;;;;;;25.75;13.40;;;2.60;99.90;;;;;;5020518;28;20041;-74
2022/03/04 09:39:52;;;;;;;24.38;13.50;;;2.30;99.90;;;;;;5056970;28;20036;-74
2022/03/04 09:42:21;;;;;;;21.88;12.27;;;2.20;99.90;;;;;;5043580;28;21627;-74
2022/03/04 09:44:46;;;;;;;25.75;14.02;;;2.30;99.90;;;;;;5037072;28;20080;-74
2022/03/04 09:47:12;;;;;;;26.50;14.45;;;2.50;99.90;;;;;;5037510;28;20188;-74
2022/03/04 09:49:38;;;;;;;27.40;15.68;;;2.40;99.90;;;;;;5038696;28;20087;-74
2022/03/04 09:52:05;;;;;;;25.08;14.13;;;2.40;99.90;;;;;;5036241;28;20048;-74
2022/03/04 09:54:31;;;;;;;25.50;14.65;;;2.30;99.90;;;;;;5043251;28;20044;-74
2022/03/04 09:56:57;;;;;;;25.13;14.55;;;2.60;99.90;;;;;;5052773;28;20452;-74
2022/03/04 09:59:23;;;;;;;24.13;12.93;;;2.70;99.90;;;;;;5062172;28;20045;-74
2022/03/04 10:01:49;;;;;;;27.35;14.63;;;2.90;99.90;;;;;;5051287;28;20029;-74
2022/03/04 10:04:15;;;;;;;24.33;13.27;;;3.00;99.90;;;;;;5069600;28;20041;-74
2022/03/04 10:06:46;;;;;;;24.90;14.05;;;3.30;99.90;;;;;;5066413;28;20135;-73
2022/03/04 10:09:12;;;;;;;23.35;12.27;;;3.40;99.90;;;;;;5053415;28;20086;-74
2022/03/04 10:11:38;;;;;;;23.88;12.95;;;3.50;99.90;;;;;;5053090;28;20045;-74
2022/03/04 10:14:09;;;;;;;25.42;14.20;;;3.50;99.90;;;;;;5049956;28;20037;-74
2022/03/04 10:16:37;;;;;;;25.13;15.55;;;3.50;99.90;;;;;;5049919;28;20067;-74
2022/03/04 10:19:14;;;;;;;26.30;15.20;;;3.40;99.90;;;;;;5053046;28;20032;-74
2022/03/04 10:22:00;;;;;;;27.23;16.20;;;3.60;99.90;;;;;;5072834;28;20443;-74
2022/03/04 10:24:35;;;;;;;26.48;14.15;;;3.70;99.90;;;;;;5040640;28;20119;-74
2022/03/04 10:27:19;;;;;;;25.20;14.32;;;3.80;99.90;;;;;;5051412;28;20090;-74
2022/03/04 10:29:47;;;;;;;22.90;13.95;;;4.10;99.90;;;;;;5049531;28;20576;-73
2022/03/04 10:32:20;;;;;;;25.92;13.55;;;4.10;99.90;;;;;;5032663;28;20041;-73
2022/03/04 10:34:59;;;;;;;26.15;14.02;;;4.20;99.90;;;;;;5051980;28;20049;-75
2022/03/04 10:37:41;;;;;;;28.30;14.40;;;4.30;99.90;;;;;;5030860;28;20037;-74
2022/03/04 10:40:17;;;;;;;25.67;13.35;;;4.40;99.90;;;;;;5045204;28;20037;-74
2022/03/04 10:42:54;;;;;;;24.45;13.57;;;4.50;99.90;;;;;;5034605;28;20037;-73
2022/03/04 10:45:28;;;;;;;28.17;14.98;;;4.60;99.90;;;;;;5051672;28;20045;-74
2022/03/04 10:47:59;;;;;;;23.95;13.18;;;4.60;99.90;;;;;;5035184;28;20094;-74
2022/03/04 10:50:31;;;;;;;26.10;15.32;;;4.80;99.90;;;;;;5052027;28;20070;-73
2022/03/04 10:53:08;;;;;;;26.52;14.93;;;4.80;99.90;;;;;;5051325;28;20044;-73
2022/03/04 10:55:44;;;;;;;23.77;13.70;;;4.80;99.90;;;;;;5052179;28;20493;-73
2022/03/04 10:58:28;;;;;;;23.25;13.63;;;4.90;99.90;;;;;;5049997;28;20082;-73
2022/03/04 11:01:18;;;;;;;25.38;15.88;;;5.10;99.90;;;;;;5049897;28;20511;-74
2022/03/04 11:03:43;;;;;;;23.48;14.18;;;5.10;99.90;;;;;;5041160;28;20045;-73
2022/03/04 11:06:14;;;;;;;22.92;13.38;;;5.20;99.90;;;;;;5034839;28;20045;-73
2022/03/04 11:08:42;;;;;;;22.27;12.73;;;5.20;99.90;;;;;;5048452;28;20525;-74
2022/03/04 11:11:08;;;;;;;25.63;12.27;;;5.40;99.90;;;;;;5032385;28;20060;-73
2022/03/04 11:13:34;;;;;;;21.48;12.52;;;5.50;99.90;;;;;;5068297;28;20037;-74
2022/03/04 11:16:02;;;;;;;23.50;13.13;;;5.60;99.90;;;;;;5052009;28;20049;-74
2022/03/04 11:18:27;;;;;;;23.83;13.82;;;5.60;99.90;;;;;;5051103;28;20045;-74
2022/03/04 11:20:56;;;;;;;21.15;12.98;;;5.80;99.90;;;;;;5065264;28;20033;-74
2022/03/04 11:23:33;;;;;;;20.63;11.77;;;5.90;99.90;;;;;;5035445;28;20038;-74
2022/03/04 11:26:22;;;;;;;22.30;12.95;;;5.80;99.90;;;;;;5050912;28;20045;-73
2022/03/04 11:28:50;;;;;;;20.10;10.98;;;5.70;99.90;;;;;;5065501;28;20138;-73
2022/03/04 11:31:20;;;;;;;22.88;14.93;;;5.80;99.90;;;;;;5048584;28;20040;-74
2022/03/04 11:33:58;;;;;;;22.67;13.48;;;5.90;99.90;;;;;;5049232;28;20190;-73
2022/03/04 11:36:29;;;;;;;20.98;12.05;;;5.80;99.90;;;;;;5049534;28;20048;-74
2022/03/04 11:39:01;;;;;;;21.05;13.20;;;5.90;99.90;;;;;;5044480;28;20064;-74
2022/03/04 11:41:26;;;;;;;19.85;10.70;;;5.90;99.90;;;;;;5045474;28;20103;-74
2022/03/04 11:43:57;;;;;;;21.83;12.52;;;6.00;99.90;;;;;;5035134;28;20128;-73
2022/03/04 11:46:27;;;;;;;22.23;12.50;;;6.10;99.90;;;;;;5034587;28;20048;-74
2022/03/04 11:49:26;;;;;;;18.45;10.20;;;6.10;99.90;;;;;;5051941;28;20040;-74
2022/03/04 11:52:07;;;;;;;18.83;9.95;;;6.20;99.90;;;;;;5037625;28;20033;-74
2022/03/04 11:54:34;;;;;;;19.10;11.65;;;6.30;99.90;;;;;;5069279;28;20040;-74
2022/03/04 11:57:13;;;;;;;19.33;9.93;;;6.30;99.90;;;;;;5048952;28;20501;-74
2022/03/04 11:59:39;;;;;;;21.15;12.30;;;6.40;99.90;;;;;;5051840;28;20041;-74
2022/03/04 12:02:05;;;;;;;18.35;10.85;;;6.40;99.90;;;;;;5037490;28;20081;-74
2022/03/04 12:04:35;;;;;;;20.48;10.48;;;6.30;99.90;;;;;;5053917;28;20090;-74
2022/03/04 12:07:08;;;;;;;16.45;8.27;;;6.50;99.90;;;;;;5054594;28;20024;-74
2022/03/04 12:09:34;;;;;;;21.48;11.85;;;6.60;99.90;;;;;;5051888;28;20101;-73
2022/03/04 12:12:18;;;;;;;17.98;10.45;;;6.70;99.90;;;;;;5055446;28;20079;-73
2022/03/04 12:14:48;;;;;;;20.45;12.68;;;6.60;99.90;;;;;;5055359;28;20098;-74
2022/03/04 12:17:16;;;;;;;19.13;11.02;;;6.60;99.90;;;;;;5052746;28;20076;-73
2022/03/04 12:19:42;;;;;;;20.30;11.50;;;6.60;99.90;;;;;;5050803;28;20075;-74
2022/03/04 12:22:11;;;;;;;20.17;10.73;;;6.80;99.90;;;;;;5035270;28;20041;-74
2022/03/04 12:24:37;;;;;;;18.60;11.60;;;6.90;99.90;;;;;;5037624;28;20407;-74
2022/03/04 12:27:04;;;;;;;17.77;10.73;;;6.80;99.90;;;;;;5054630;28;20032;-74
2022/03/04 12:29:47;;;;;;;16.50;9.50;;;6.80;99.90;;;;;;5053250;28;20595;-74
2022/03/04 12:32:14;;;;;;;18.65;11.45;;;7.10;99.90;;;;;;5071169;28;20069;-73
2022/03/04 12:34:52;;;;;;;19.20;11.13;;;7.10;99.40;;;;;;5042655;28;20538;-73
2022/03/04 12:37:19;;;;;;;17.40;10.82;;;6.90;99.70;;;;;;5055050;28;20043;-74
2022/03/04 12:39:50;;;;;;;18.50;10.07;;;7.00;99.90;;;;;;5053303;28;20068;-74